Time;durP1;ratioP1;P1;durP2;ratioP2;P2;SDS_P1;SDS_P2;PMS_P1;PMS_P2;Temp;Humidity;BMP_temperature;BMP_pressure;BME280_temperature;BME280_humidity;BME280_pressure;Samples;Min_cycle;Max_cycle;Signal;HPM_P1;HPM_P2
2021/11/10 00:02:05;;;;;;;5.17;4.67;;;3.40;99.90;;;;;;4987004;28;20183;-73
2021/11/10 00:04:31;;;;;;;5.90;5.00;;;3.40;99.90;;;;;;4986101;28;20907;-73
2021/11/10 00:06:57;;;;;;;5.37;4.70;;;3.40;99.90;;;;;;4984337;28;21014;-73
2021/11/10 00:09:22;;;;;;;4.90;4.50;;;3.30;99.90;;;;;;4985828;28;20226;-73
2021/11/10 00:11:48;;;;;;;5.20;4.80;;;3.30;99.90;;;;;;4984857;28;20186;-73
2021/11/10 00:14:14;;;;;;;6.60;4.60;;;3.30;99.90;;;;;;4986228;28;21111;-73
2021/11/10 00:16:40;;;;;;;6.40;4.70;;;3.30;99.90;;;;;;5003400;28;20211;-73
2021/11/10 00:19:06;;;;;;;11.30;5.70;;;3.30;99.90;;;;;;4987580;28;20492;-73
2021/11/10 00:21:32;;;;;;;7.10;5.33;;;3.40;99.90;;;;;;4987173;28;20441;-73
2021/11/10 00:23:58;;;;;;;5.27;4.77;;;3.40;99.90;;;;;;4986956;28;20182;-73
2021/11/10 00:26:24;;;;;;;8.70;4.37;;;3.40;99.90;;;;;;4985469;28;20483;-72
2021/11/10 00:28:51;;;;;;;6.23;4.70;;;3.40;99.90;;;;;;4986323;28;20465;-72
2021/11/10 00:31:18;;;;;;;4.90;4.20;;;3.40;99.90;;;;;;4986090;28;20431;-72
2021/11/10 00:33:44;;;;;;;9.10;4.33;;;3.40;99.90;;;;;;4987308;28;20513;-72
2021/11/10 00:36:10;;;;;;;6.70;4.40;;;3.40;99.90;;;;;;4986656;28;20444;-73
2021/11/10 00:38:37;;;;;;;4.50;4.00;;;3.30;99.90;;;;;;4987665;28;20429;-73
2021/11/10 00:41:04;;;;;;;6.57;4.73;;;3.30;99.90;;;;;;4983006;28;20464;-73
2021/11/10 00:43:30;;;;;;;4.57;4.17;;;3.30;99.90;;;;;;5001143;28;20437;-73
2021/11/10 00:45:56;;;;;;;4.47;4.10;;;3.30;99.90;;;;;;4985225;28;20776;-72
2021/11/10 00:48:21;;;;;;;5.50;4.17;;;3.30;99.90;;;;;;4986522;28;20193;-73
2021/11/10 00:50:47;;;;;;;6.17;4.73;;;3.30;99.90;;;;;;5003167;28;20470;-73
2021/11/10 00:53:13;;;;;;;4.70;4.10;;;3.30;99.90;;;;;;4986407;28;20172;-73
2021/11/10 00:55:40;;;;;;;4.67;4.27;;;3.30;99.90;;;;;;4986696;28;20434;-73
2021/11/10 00:58:06;;;;;;;5.07;4.47;;;3.30;99.90;;;;;;5000784;28;20185;-73
2021/11/10 01:00:32;;;;;;;6.47;4.10;;;3.30;99.90;;;;;;4986350;28;20453;-73
2021/11/10 01:02:58;;;;;;;4.27;3.73;;;3.20;99.90;;;;;;4984644;28;20434;-73
2021/11/10 01:05:24;;;;;;;3.93;3.63;;;3.20;99.90;;;;;;4997131;28;20955;-73
2021/11/10 01:07:50;;;;;;;8.00;4.50;;;3.20;99.90;;;;;;4977203;28;20269;-73
2021/11/10 01:10:16;;;;;;;4.27;3.97;;;3.20;99.90;;;;;;4984872;28;20597;-72
2021/11/10 01:12:42;;;;;;;5.63;4.10;;;3.20;99.90;;;;;;4984681;28;20619;-72
2021/11/10 01:15:09;;;;;;;5.13;4.40;;;3.20;99.90;;;;;;4985190;28;20479;-72
2021/11/10 01:17:36;;;;;;;4.03;3.63;;;3.30;99.90;;;;;;5002333;28;20341;-72
2021/11/10 01:20:04;;;;;;;4.07;3.67;;;3.30;99.90;;;;;;4984720;28;20587;-72
2021/11/10 01:22:29;;;;;;;4.10;3.80;;;3.30;99.90;;;;;;4983919;28;20437;-72
2021/11/10 01:24:55;;;;;;;3.93;3.60;;;3.20;99.90;;;;;;4986066;28;20433;-72
2021/11/10 01:27:21;;;;;;;6.20;4.10;;;3.20;99.90;;;;;;4984189;28;20331;-72
2021/11/10 01:29:46;;;;;;;4.60;4.20;;;3.20;99.90;;;;;;5000794;28;20653;-72
2021/11/10 01:32:12;;;;;;;4.03;3.73;;;3.20;99.90;;;;;;4986999;28;20178;-72
2021/11/10 01:34:38;;;;;;;4.67;4.27;;;3.20;99.90;;;;;;4984560;28;20206;-72
2021/11/10 01:37:04;;;;;;;3.83;3.53;;;3.20;99.90;;;;;;4984583;28;20220;-72
2021/11/10 01:39:30;;;;;;;3.73;3.33;;;3.20;99.90;;;;;;4983380;28;20258;-72
2021/11/10 01:42:02;;;;;;;3.73;3.43;;;3.20;99.90;;;;;;4986142;28;20872;-72
2021/11/10 01:44:29;;;;;;;5.40;4.30;;;3.20;99.90;;;;;;4984421;28;20504;-72
2021/11/10 01:46:58;;;;;;;4.40;4.00;;;3.20;99.90;;;;;;4984845;28;20459;-72
2021/11/10 01:49:23;;;;;;;5.37;3.97;;;3.20;99.90;;;;;;4984922;28;20583;-72
2021/11/10 01:51:52;;;;;;;5.33;3.93;;;3.30;99.90;;;;;;4986178;28;20543;-72
2021/11/10 01:54:19;;;;;;;10.63;3.87;;;3.30;99.90;;;;;;4984753;28;20441;-72
2021/11/10 01:56:45;;;;;;;5.87;4.17;;;3.30;99.90;;;;;;4986309;28;20929;-72
2021/11/10 01:59:26;;;;;;;5.10;4.10;;;3.40;99.90;;;;;;4983930;28;20439;-72
2021/11/10 02:01:52;;;;;;;3.50;3.20;;;3.40;99.90;;;;;;4983084;28;20201;-72
2021/11/10 02:04:18;;;;;;;6.70;4.10;;;3.40;99.90;;;;;;4985688;28;20517;-72
2021/11/10 02:06:43;;;;;;;6.00;3.90;;;3.40;99.90;;;;;;4983915;28;20519;-72
2021/11/10 02:09:09;;;;;;;5.87;4.60;;;3.40;99.90;;;;;;5001172;28;20205;-72
2021/11/10 02:11:35;;;;;;;5.77;3.57;;;3.40;99.90;;;;;;4985072;28;20727;-72
2021/11/10 02:14:02;;;;;;;4.97;3.90;;;3.50;99.90;;;;;;4984523;28;20183;-72
2021/11/10 02:16:28;;;;;;;6.40;4.23;;;3.40;99.90;;;;;;4984651;28;20444;-72
2021/11/10 02:18:54;;;;;;;6.93;4.27;;;3.40;99.90;;;;;;4982431;28;20444;-72
2021/11/10 02:21:21;;;;;;;5.83;3.60;;;3.40;99.90;;;;;;4986270;28;20440;-72
2021/11/10 02:23:47;;;;;;;5.20;4.80;;;3.40;99.90;;;;;;4985321;28;20455;-72
2021/11/10 02:26:15;;;;;;;5.83;4.40;;;3.40;99.90;;;;;;4983842;28;20434;-72
2021/11/10 02:28:41;;;;;;;6.63;4.23;;;3.40;99.90;;;;;;4984498;28;20620;-72
2021/11/10 02:31:10;;;;;;;14.53;4.80;;;3.40;99.90;;;;;;4981190;28;20477;-72
2021/11/10 02:33:36;;;;;;;5.50;4.17;;;3.40;99.90;;;;;;4983747;28;20534;-72
2021/11/10 02:36:06;;;;;;;6.80;4.07;;;3.40;99.90;;;;;;4984030;28;20533;-72
2021/11/10 02:38:32;;;;;;;5.47;4.10;;;3.40;99.90;;;;;;4984775;28;20224;-72
2021/11/10 02:41:01;;;;;;;3.83;3.43;;;3.40;99.90;;;;;;4983963;28;20433;-72
2021/11/10 02:43:28;;;;;;;4.60;4.00;;;3.30;99.90;;;;;;4983088;28;20432;-72
2021/11/10 02:45:54;;;;;;;4.40;3.47;;;3.30;99.90;;;;;;4982749;28;20429;-72
2021/11/10 02:48:21;;;;;;;5.83;4.00;;;3.30;99.90;;;;;;4985541;28;20436;-72
2021/11/10 02:50:48;;;;;;;4.30;3.70;;;3.30;99.90;;;;;;4982692;28;20465;-72
2021/11/10 02:53:15;;;;;;;4.53;3.50;;;3.20;99.90;;;;;;4984981;28;20424;-72
2021/11/10 02:55:41;;;;;;;5.90;3.80;;;3.20;99.90;;;;;;4980849;28;20823;-72
2021/11/10 02:58:07;;;;;;;8.93;3.10;;;3.20;99.90;;;;;;4999453;28;20442;-72
2021/11/10 03:00:34;;;;;;;4.10;3.67;;;3.10;99.90;;;;;;4989617;28;20459;-72
2021/11/10 03:03:02;;;;;;;5.37;4.00;;;3.10;99.90;;;;;;4983676;28;20793;-72
2021/11/10 03:05:29;;;;;;;4.27;3.50;;;3.10;99.90;;;;;;4998859;28;20464;-72
2021/11/10 03:07:55;;;;;;;3.93;3.40;;;3.10;99.90;;;;;;4974125;28;20459;-72
2021/11/10 03:10:20;;;;;;;6.57;3.50;;;3.00;99.90;;;;;;4983589;28;20472;-72
2021/11/10 03:12:47;;;;;;;6.33;4.30;;;3.00;99.90;;;;;;4985149;28;20772;-72
2021/11/10 03:15:13;;;;;;;6.00;3.80;;;3.00;99.90;;;;;;4982355;28;20184;-72
2021/11/10 03:17:39;;;;;;;4.00;3.70;;;3.00;99.90;;;;;;4982591;28;20761;-72
2021/11/10 03:20:07;;;;;;;3.50;3.20;;;2.90;99.90;;;;;;4983081;28;20436;-72
2021/11/10 03:22:34;;;;;;;3.47;3.17;;;2.90;99.90;;;;;;4984020;28;20524;-72
2021/11/10 03:25:00;;;;;;;7.20;3.73;;;2.90;99.90;;;;;;4983697;28;20432;-72
2021/11/10 03:27:26;;;;;;;5.00;3.67;;;2.90;99.90;;;;;;4982723;28;20432;-72
2021/11/10 03:29:52;;;;;;;3.63;3.37;;;2.90;99.90;;;;;;4983926;28;20765;-72
2021/11/10 03:32:20;;;;;;;4.33;3.87;;;2.80;99.90;;;;;;4983975;28;20975;-72
2021/11/10 03:34:47;;;;;;;4.00;3.70;;;2.80;99.90;;;;;;4983811;28;20887;-72
2021/11/10 03:37:13;;;;;;;2.80;2.60;;;2.80;99.90;;;;;;4982577;28;20959;-72
2021/11/10 03:39:39;;;;;;;3.43;3.20;;;2.70;99.90;;;;;;4984431;28;20434;-72
2021/11/10 03:42:06;;;;;;;3.67;3.37;;;2.70;99.90;;;;;;4983680;28;20432;-72
2021/11/10 03:44:32;;;;;;;4.10;3.00;;;2.70;99.90;;;;;;4983504;28;20792;-72
2021/11/10 03:46:57;;;;;;;3.40;3.20;;;2.70;99.90;;;;;;4984240;28;20476;-72
2021/11/10 03:49:25;;;;;;;3.53;3.23;;;2.70;99.90;;;;;;4982807;28;20504;-72
2021/11/10 03:51:52;;;;;;;4.00;3.67;;;2.70;99.90;;;;;;4983111;28;20181;-72
2021/11/10 03:54:18;;;;;;;2.80;2.60;;;2.70;99.90;;;;;;4983633;28;20459;-72
2021/11/10 03:56:45;;;;;;;3.17;2.87;;;2.60;99.90;;;;;;4999437;28;21295;-72
2021/11/10 03:59:11;;;;;;;3.83;3.57;;;2.60;99.90;;;;;;4984443;28;20532;-72
2021/11/10 04:01:36;;;;;;;3.10;2.90;;;2.60;99.90;;;;;;4984738;28;20434;-72
2021/11/10 04:04:02;;;;;;;3.97;3.40;;;2.60;99.90;;;;;;5000092;28;20580;-72
2021/11/10 04:06:28;;;;;;;3.60;3.30;;;2.60;99.90;;;;;;4984312;28;20169;-72
2021/11/10 04:08:54;;;;;;;3.77;2.90;;;2.50;99.90;;;;;;4981865;28;20825;-72
2021/11/10 04:11:20;;;;;;;5.37;3.20;;;2.50;99.90;;;;;;4983683;28;20552;-72
2021/11/10 04:13:46;;;;;;;6.40;3.63;;;2.40;99.90;;;;;;4984434;28;20461;-72
2021/11/10 04:16:13;;;;;;;3.57;3.23;;;2.40;99.90;;;;;;5001771;28;20432;-72
2021/11/10 04:18:39;;;;;;;4.57;4.00;;;2.40;99.90;;;;;;4987695;28;20437;-72
2021/11/10 04:21:05;;;;;;;3.73;3.43;;;2.40;99.90;;;;;;4986007;28;20444;-72
2021/11/10 04:23:33;;;;;;;4.13;3.07;;;2.40;99.90;;;;;;4986870;28;20451;-72
2021/11/10 04:25:59;;;;;;;3.23;3.03;;;2.30;99.90;;;;;;5002670;28;20443;-72
2021/11/10 04:28:26;;;;;;;4.40;3.37;;;2.30;99.90;;;;;;4987560;28;20467;-72
2021/11/10 04:30:53;;;;;;;3.27;3.07;;;2.30;99.90;;;;;;4987259;28;20484;-72
2021/11/10 04:33:20;;;;;;;3.43;3.17;;;2.30;99.90;;;;;;4988822;28;20438;-72
2021/11/10 04:35:46;;;;;;;9.43;3.50;;;2.30;99.90;;;;;;4987636;28;20486;-72
2021/11/10 04:38:12;;;;;;;3.53;3.23;;;2.30;99.90;;;;;;4987841;28;20429;-72
2021/11/10 04:40:39;;;;;;;3.30;3.00;;;2.20;99.90;;;;;;4986034;28;21071;-72
2021/11/10 04:43:05;;;;;;;3.67;3.47;;;2.20;99.90;;;;;;4989953;28;20452;-72
2021/11/10 04:45:35;;;;;;;3.93;3.60;;;2.20;99.90;;;;;;4987584;28;20437;-68
2021/11/10 04:48:02;;;;;;;2.97;2.73;;;2.10;99.90;;;;;;4985854;28;20459;-67
2021/11/10 04:50:28;;;;;;;3.57;3.33;;;2.10;99.90;;;;;;4984260;28;20568;-67
2021/11/10 04:52:54;;;;;;;3.23;2.93;;;2.10;99.90;;;;;;4986131;28;20438;-67
2021/11/10 04:55:20;;;;;;;4.00;2.90;;;2.10;99.90;;;;;;4984501;28;20756;-67
2021/11/10 04:57:46;;;;;;;5.43;3.70;;;2.10;99.90;;;;;;4983490;28;20439;-67
2021/11/10 05:00:13;;;;;;;4.67;3.27;;;2.10;99.90;;;;;;4998067;28;20199;-67
2021/11/10 05:02:39;;;;;;;5.37;3.43;;;2.00;99.90;;;;;;4985418;28;20188;-67
2021/11/10 05:05:06;;;;;;;7.73;3.70;;;2.00;99.90;;;;;;4983105;28;20907;-67
2021/11/10 05:07:32;;;;;;;3.30;3.00;;;2.00;99.90;;;;;;4984455;28;20451;-67
2021/11/10 05:09:58;;;;;;;3.37;3.17;;;2.00;99.90;;;;;;4983856;28;20473;-67
2021/11/10 05:12:24;;;;;;;3.33;2.73;;;2.00;99.90;;;;;;4982312;28;20434;-67
2021/11/10 05:14:55;;;;;;;3.30;3.00;;;2.00;99.90;;;;;;4984452;28;20804;-67
2021/11/10 05:17:21;;;;;;;3.20;2.90;;;1.90;99.90;;;;;;4983536;28;20507;-67
2021/11/10 05:19:47;;;;;;;2.97;2.80;;;1.90;99.90;;;;;;4987296;28;20432;-67
2021/11/10 05:22:14;;;;;;;3.50;3.20;;;1.90;99.90;;;;;;4984145;28;20443;-67
2021/11/10 05:24:40;;;;;;;6.57;4.90;;;1.90;99.90;;;;;;4984975;28;20432;-67
2021/11/10 05:27:07;;;;;;;10.03;5.17;;;1.90;99.90;;;;;;4984318;28;20443;-67
2021/11/10 05:29:33;;;;;;;6.47;5.03;;;1.80;99.90;;;;;;4981578;28;20651;-67
2021/11/10 05:31:59;;;;;;;4.93;4.23;;;1.80;99.90;;;;;;4985000;28;20451;-67
2021/11/10 05:34:24;;;;;;;4.87;4.37;;;1.80;99.90;;;;;;4983926;28;20187;-67
2021/11/10 05:36:51;;;;;;;5.53;4.37;;;1.80;99.90;;;;;;4983817;28;20179;-67
2021/11/10 05:39:17;;;;;;;3.13;2.87;;;1.70;99.90;;;;;;4983060;28;20186;-68
2021/11/10 05:41:49;;;;;;;3.27;2.80;;;1.70;99.90;;;;;;4983545;28;20448;-67
2021/11/10 05:44:15;;;;;;;5.43;4.10;;;1.70;99.90;;;;;;4983153;28;20443;-67
2021/11/10 05:46:41;;;;;;;5.93;3.63;;;1.70;99.90;;;;;;4982874;28;20473;-68
2021/11/10 05:49:07;;;;;;;3.77;3.43;;;1.70;99.90;;;;;;4982219;28;20836;-67
2021/11/10 05:51:33;;;;;;;3.97;3.60;;;1.70;99.90;;;;;;4984649;28;21184;-68
2021/11/10 05:53:58;;;;;;;3.50;3.20;;;1.60;99.90;;;;;;4983707;28;20431;-67
2021/11/10 05:56:27;;;;;;;6.20;3.83;;;1.60;99.90;;;;;;4984813;28;20212;-67
2021/11/10 05:58:57;;;;;;;4.13;3.70;;;1.50;99.90;;;;;;4981574;28;20195;-68
2021/11/10 06:01:23;;;;;;;4.77;3.77;;;1.50;99.90;;;;;;4984439;28;20435;-68
2021/11/10 06:03:49;;;;;;;4.70;3.50;;;1.60;99.90;;;;;;4982159;28;20460;-68
2021/11/10 06:06:15;;;;;;;4.60;4.17;;;1.60;99.90;;;;;;4983351;28;20424;-68
2021/11/10 06:08:41;;;;;;;4.23;3.80;;;1.60;99.90;;;;;;4979211;28;21114;-68
2021/11/10 06:11:08;;;;;;;5.43;3.87;;;1.60;99.90;;;;;;4981379;28;20282;-68
2021/11/10 06:13:34;;;;;;;3.47;3.27;;;1.50;99.90;;;;;;4999248;28;20186;-68
2021/11/10 06:16:00;;;;;;;3.87;3.53;;;1.50;99.90;;;;;;4982923;28;20425;-68
2021/11/10 06:18:26;;;;;;;3.87;3.47;;;1.50;99.90;;;;;;4981260;28;20437;-68
2021/11/10 06:20:51;;;;;;;4.03;3.63;;;1.50;99.90;;;;;;4981152;28;20617;-68
2021/11/10 06:23:17;;;;;;;3.60;3.03;;;1.50;99.90;;;;;;4983258;28;20185;-68
2021/11/10 06:25:43;;;;;;;4.40;4.00;;;1.50;99.90;;;;;;4999586;28;20175;-68
2021/11/10 06:28:08;;;;;;;4.43;4.03;;;1.40;99.90;;;;;;4982286;28;20273;-68
2021/11/10 06:30:34;;;;;;;3.27;2.97;;;1.40;99.90;;;;;;4980015;28;21119;-67
2021/11/10 06:33:00;;;;;;;6.93;3.70;;;1.40;99.90;;;;;;4982156;28;20175;-67
2021/11/10 06:35:26;;;;;;;7.60;4.30;;;1.30;99.90;;;;;;4981976;28;20251;-67
2021/11/10 06:37:52;;;;;;;4.93;3.90;;;1.30;99.90;;;;;;4982691;28;20481;-67
2021/11/10 06:40:18;;;;;;;11.00;4.60;;;1.40;99.90;;;;;;4982463;28;20427;-67
2021/11/10 06:42:43;;;;;;;4.80;4.40;;;1.40;99.90;;;;;;4982248;28;20553;-67
2021/11/10 06:45:09;;;;;;;3.80;3.23;;;1.40;99.90;;;;;;4981601;28;20230;-67
2021/11/10 06:47:35;;;;;;;5.73;3.90;;;1.40;99.90;;;;;;4980959;28;20215;-72
2021/11/10 06:50:03;;;;;;;6.20;3.40;;;1.40;99.90;;;;;;4980286;28;20769;-73
2021/11/10 06:52:28;;;;;;;5.20;3.23;;;1.40;99.90;;;;;;4983731;28;20170;-73
2021/11/10 06:54:54;;;;;;;6.17;4.43;;;1.50;99.90;;;;;;5000212;28;20449;-72
2021/11/10 06:57:20;;;;;;;7.33;4.47;;;1.50;99.90;;;;;;4982026;28;20260;-72
2021/11/10 06:59:46;;;;;;;4.60;4.17;;;1.50;99.90;;;;;;4981359;28;20205;-72
2021/11/10 07:02:12;;;;;;;5.80;4.60;;;1.30;99.90;;;;;;4981010;28;20430;-72
2021/11/10 07:04:38;;;;;;;5.87;3.87;;;1.30;99.90;;;;;;4983526;28;20438;-72
2021/11/10 07:07:04;;;;;;;5.07;4.10;;;1.40;99.90;;;;;;4984217;28;20175;-72
2021/11/10 07:09:31;;;;;;;6.23;4.70;;;1.40;99.90;;;;;;4983364;28;20218;-72
2021/11/10 07:11:57;;;;;;;11.83;4.00;;;1.50;99.90;;;;;;4982400;28;20775;-72
2021/11/10 07:14:24;;;;;;;4.30;3.90;;;1.50;99.90;;;;;;4982747;28;20440;-72
2021/11/10 07:16:50;;;;;;;4.43;4.00;;;1.50;99.90;;;;;;4998767;28;20184;-72
2021/11/10 07:19:15;;;;;;;5.73;4.80;;;1.50;99.90;;;;;;4981777;28;20576;-72
2021/11/10 07:21:41;;;;;;;6.13;4.50;;;1.50;99.90;;;;;;4979374;28;20554;-72
2021/11/10 07:24:08;;;;;;;6.77;4.93;;;1.60;99.90;;;;;;4978938;28;20173;-72
2021/11/10 07:26:33;;;;;;;11.10;4.80;;;1.60;99.90;;;;;;4980916;28;20431;-72
2021/11/10 07:29:00;;;;;;;6.20;5.40;;;1.70;99.90;;;;;;4998114;28;21066;-72
2021/11/10 07:31:25;;;;;;;5.07;4.67;;;1.80;99.90;;;;;;4980982;28;20172;-72
2021/11/10 07:33:51;;;;;;;11.30;6.33;;;1.80;99.90;;;;;;4978848;28;20473;-72
2021/11/10 07:36:17;;;;;;;5.47;4.97;;;1.90;99.90;;;;;;4982084;28;20182;-72
2021/11/10 07:38:43;;;;;;;6.30;5.70;;;1.90;99.90;;;;;;4996841;28;20212;-72
2021/11/10 07:41:13;;;;;;;7.17;5.93;;;2.00;99.90;;;;;;4984332;28;20183;-72
2021/11/10 07:43:38;;;;;;;6.43;4.63;;;2.00;99.90;;;;;;4983455;28;20438;-72
2021/11/10 07:46:14;;;;;;;9.40;6.10;;;2.10;99.90;;;;;;4983084;28;20430;-72
2021/11/10 07:48:41;;;;;;;4.97;4.50;;;2.10;99.90;;;;;;4982353;28;20166;-72
2021/11/10 07:51:07;;;;;;;7.13;4.83;;;2.20;99.90;;;;;;4984020;28;20860;-72
2021/11/10 07:53:33;;;;;;;5.50;4.90;;;2.20;99.90;;;;;;4983603;28;20506;-72
2021/11/10 07:55:59;;;;;;;6.60;5.03;;;2.30;99.90;;;;;;4985871;28;20214;-72
2021/11/10 07:58:25;;;;;;;8.80;5.57;;;2.30;99.90;;;;;;4985725;28;20479;-72
2021/11/10 08:00:51;;;;;;;7.13;5.07;;;2.30;99.90;;;;;;4986533;28;20237;-72
2021/11/10 08:03:17;;;;;;;8.40;5.53;;;2.40;99.90;;;;;;4984005;28;20494;-72
2021/11/10 08:05:44;;;;;;;7.90;5.70;;;2.50;99.90;;;;;;4985710;28;20518;-72
2021/11/10 08:08:09;;;;;;;6.30;5.40;;;2.50;99.90;;;;;;4986340;28;20476;-72
2021/11/10 08:10:36;;;;;;;6.83;5.93;;;2.60;99.90;;;;;;4984855;28;20249;-72
2021/11/10 08:13:01;;;;;;;6.00;5.50;;;2.60;99.90;;;;;;4985791;28;20186;-72
2021/11/10 08:15:28;;;;;;;8.37;6.20;;;2.70;99.90;;;;;;4984241;28;20438;-72
2021/11/10 08:17:54;;;;;;;6.33;5.70;;;2.80;99.90;;;;;;5002689;28;20277;-72
2021/11/10 08:20:20;;;;;;;7.43;5.77;;;2.80;99.90;;;;;;4986384;28;20520;-72
2021/11/10 08:22:47;;;;;;;7.37;5.70;;;2.90;99.90;;;;;;4985818;28;20473;-72
2021/11/10 08:25:16;;;;;;;7.73;5.00;;;3.00;99.90;;;;;;4985984;28;20436;-72
2021/11/10 08:27:42;;;;;;;9.57;4.87;;;3.10;99.90;;;;;;4985639;28;20429;-72
2021/11/10 08:30:11;;;;;;;6.30;5.07;;;3.10;99.90;;;;;;4986544;28;20528;-72
2021/11/10 08:32:37;;;;;;;6.97;5.97;;;3.20;99.90;;;;;;4986338;28;20449;-72
2021/11/10 08:35:03;;;;;;;5.60;5.03;;;3.20;99.90;;;;;;4985946;28;20868;-72
2021/11/10 08:37:31;;;;;;;5.13;4.63;;;3.30;99.90;;;;;;4984985;28;20316;-72
2021/11/10 08:39:57;;;;;;;7.70;5.60;;;3.40;99.90;;;;;;4986738;28;20448;-72
2021/11/10 08:42:24;;;;;;;6.10;5.40;;;3.50;99.90;;;;;;4984132;28;21033;-72
2021/11/10 08:44:52;;;;;;;6.13;4.80;;;3.60;99.90;;;;;;4985934;28;20437;-72
2021/11/10 08:47:20;;;;;;;8.97;6.00;;;3.70;99.90;;;;;;4986531;28;20441;-72
2021/11/10 08:49:48;;;;;;;8.33;5.50;;;3.80;99.90;;;;;;4986353;28;20471;-72
2021/11/10 08:52:14;;;;;;;9.53;5.87;;;4.00;99.90;;;;;;4987203;28;20545;-72
2021/11/10 08:54:39;;;;;;;10.17;7.60;;;4.30;99.90;;;;;;4986283;28;20534;-72
2021/11/10 08:57:07;;;;;;;14.53;8.43;;;4.50;99.90;;;;;;4986010;28;20528;-72
2021/11/10 08:59:32;;;;;;;13.10;9.33;;;4.60;99.90;;;;;;4986185;28;20206;-72
2021/11/10 09:01:58;;;;;;;12.47;8.80;;;4.80;99.90;;;;;;4984738;28;20449;-72
2021/11/10 09:04:25;;;;;;;14.47;8.00;;;5.00;99.90;;;;;;4982584;28;20198;-72
2021/11/10 09:06:50;;;;;;;12.33;7.67;;;5.10;99.90;;;;;;4985800;28;20452;-72
2021/11/10 09:09:17;;;;;;;8.23;7.33;;;5.20;99.90;;;;;;4985063;28;20446;-72
2021/11/10 09:11:44;;;;;;;17.90;8.50;;;5.30;99.90;;;;;;4985003;28;20446;-72
2021/11/10 09:14:10;;;;;;;12.90;8.50;;;5.40;99.90;;;;;;4983890;28;20465;-72
2021/11/10 09:16:36;;;;;;;9.10;7.07;;;5.60;99.90;;;;;;4984440;28;20480;-72
2021/11/10 09:19:03;;;;;;;12.27;8.90;;;5.70;99.90;;;;;;4983186;28;20455;-72
2021/11/10 09:21:29;;;;;;;9.20;7.40;;;5.90;99.90;;;;;;4980858;28;20446;-72
2021/11/10 09:23:55;;;;;;;15.10;7.10;;;6.00;99.90;;;;;;4984123;28;20442;-72
2021/11/10 09:26:21;;;;;;;10.10;7.23;;;6.10;99.90;;;;;;4986261;28;20434;-72
2021/11/10 09:28:47;;;;;;;8.53;6.77;;;6.20;99.90;;;;;;4985601;28;20449;-72
2021/11/10 09:31:12;;;;;;;11.47;7.40;;;6.20;99.90;;;;;;4984213;28;20242;-72
2021/11/10 09:33:41;;;;;;;12.30;7.23;;;6.30;99.90;;;;;;4981497;28;20175;-72
2021/11/10 09:36:08;;;;;;;11.43;7.20;;;6.40;99.90;;;;;;4985392;28;20259;-72
2021/11/10 09:38:35;;;;;;;14.20;7.60;;;6.50;99.90;;;;;;4984034;28;20430;-72
2021/11/10 09:41:03;;;;;;;9.13;7.40;;;6.60;99.90;;;;;;4983723;28;20439;-72
2021/11/10 09:43:40;;;;;;;8.80;7.10;;;6.60;99.90;;;;;;4985000;28;20788;-72
2021/11/10 09:46:07;;;;;;;9.97;7.23;;;6.80;99.90;;;;;;4984623;28;20481;-72
2021/11/10 09:48:34;;;;;;;11.17;8.47;;;6.90;99.90;;;;;;4983417;28;20442;-72
2021/11/10 09:51:01;;;;;;;9.03;6.40;;;7.00;99.90;;;;;;4981742;28;20462;-72
2021/11/10 09:53:26;;;;;;;14.03;8.90;;;7.10;99.90;;;;;;4984076;28;20442;-72
2021/11/10 09:55:54;;;;;;;13.60;9.10;;;7.20;99.90;;;;;;4986731;28;20943;-72
2021/11/10 09:58:21;;;;;;;15.30;7.40;;;7.20;99.90;;;;;;5000786;28;20521;-72
2021/11/10 10:00:59;;;;;;;9.13;7.17;;;7.30;99.90;;;;;;4984854;28;20530;-72
2021/11/10 10:03:25;;;;;;;11.47;8.40;;;7.30;99.90;;;;;;4984263;28;20943;-72
2021/11/10 10:05:53;;;;;;;14.17;7.27;;;7.30;99.90;;;;;;4985365;28;20438;-72
2021/11/10 10:08:21;;;;;;;9.00;6.70;;;7.30;99.90;;;;;;4983835;28;20501;-72
2021/11/10 10:10:48;;;;;;;13.20;7.70;;;7.40;99.90;;;;;;4983444;28;20480;-72
2021/11/10 10:13:15;;;;;;;11.23;7.70;;;7.40;99.90;;;;;;4984073;28;20457;-72
2021/11/10 10:15:42;;;;;;;8.87;6.33;;;7.50;99.90;;;;;;4985677;28;20435;-72
2021/11/10 10:18:28;;;;;;;11.00;6.83;;;7.60;99.90;;;;;;4983902;28;20461;-72
2021/11/10 10:21:02;;;;;;;10.87;6.70;;;7.60;99.90;;;;;;4983664;28;20436;-72
2021/11/10 10:23:41;;;;;;;9.30;6.40;;;7.80;99.90;;;;;;4998589;28;20994;-72
2021/11/10 10:26:11;;;;;;;7.70;6.50;;;7.80;99.90;;;;;;4983298;28;20466;-72
2021/11/10 10:28:39;;;;;;;9.23;6.60;;;7.90;99.90;;;;;;4983468;28;20460;-72
2021/11/10 10:31:07;;;;;;;16.20;7.37;;;7.90;99.90;;;;;;5000007;28;21089;-72
2021/11/10 10:33:42;;;;;;;9.17;6.80;;;8.00;99.90;;;;;;4984554;28;20516;-72
2021/11/10 10:36:15;;;;;;;8.90;6.00;;;8.00;99.90;;;;;;4980502;28;20439;-72
2021/11/10 10:38:43;;;;;;;14.77;6.30;;;8.10;99.90;;;;;;4983490;28;20755;-72
2021/11/10 10:41:10;;;;;;;8.10;6.50;;;8.20;99.90;;;;;;4982150;28;20446;-72
2021/11/10 10:43:48;;;;;;;10.60;6.90;;;8.20;99.90;;;;;;4983612;28;20466;-72
2021/11/10 10:46:17;;;;;;;7.40;6.47;;;8.30;99.90;;;;;;4982592;28;20509;-72
2021/11/10 10:48:43;;;;;;;11.27;6.97;;;8.40;99.90;;;;;;4983090;28;20469;-72
2021/11/10 10:51:12;;;;;;;13.60;7.07;;;8.40;99.90;;;;;;4983497;28;20463;-72
2021/11/10 10:53:49;;;;;;;8.50;5.90;;;8.60;99.90;;;;;;4982356;28;20485;-72
2021/11/10 10:56:20;;;;;;;15.57;6.20;;;8.80;99.90;;;;;;4981484;28;20528;-72
2021/11/10 10:58:51;;;;;;;9.97;7.17;;;8.90;99.90;;;;;;4980967;28;20442;-72
2021/11/10 11:01:45;;;;;;;11.27;7.40;;;9.00;99.90;;;;;;4981280;28;20784;-72
2021/11/10 11:04:20;;;;;;;9.20;6.10;;;9.00;99.90;;;;;;4981658;28;20534;-72
2021/11/10 11:07:04;;;;;;;9.03;6.20;;;9.10;99.90;;;;;;4982369;28;20430;-72
2021/11/10 11:09:35;;;;;;;8.37;6.53;;;9.30;99.90;;;;;;4981616;28;20561;-72
2021/11/10 11:12:12;;;;;;;7.73;5.70;;;9.50;99.90;;;;;;4980697;28;20772;-72
2021/11/10 11:14:55;;;;;;;9.97;6.83;;;9.60;99.90;;;;;;4982977;28;20752;-72
2021/11/10 11:17:26;;;;;;;10.40;6.83;;;9.50;99.90;;;;;;4982329;28;20426;-72
2021/11/10 11:20:00;;;;;;;8.00;6.20;;;9.60;99.90;;;;;;4982344;28;20443;-72
2021/11/10 11:22:28;;;;;;;9.17;5.73;;;9.70;99.90;;;;;;4982412;28;20478;-72
2021/11/10 11:24:55;;;;;;;7.73;5.93;;;9.70;99.90;;;;;;4980164;28;20513;-72
2021/11/10 11:27:25;;;;;;;9.00;5.80;;;9.80;99.90;;;;;;4980998;28;20441;-72
2021/11/10 11:29:58;;;;;;;6.27;5.60;;;9.80;99.90;;;;;;4982594;28;20459;-72
2021/11/10 11:32:23;;;;;;;7.67;6.10;;;9.90;99.90;;;;;;4979688;28;20458;-72
2021/11/10 11:35:00;;;;;;;5.50;5.00;;;10.20;99.90;;;;;;4982531;28;20469;-72
2021/11/10 11:37:27;;;;;;;6.83;4.83;;;10.30;99.90;;;;;;4983973;28;20179;-72
2021/11/10 11:39:54;;;;;;;4.97;4.50;;;10.50;99.90;;;;;;4981723;28;20446;-72
2021/11/10 11:42:20;;;;;;;5.80;4.17;;;10.70;99.90;;;;;;4980389;28;20946;-72
2021/11/10 11:44:47;;;;;;;8.43;4.37;;;10.70;99.90;;;;;;4981235;28;21057;-72
2021/11/10 11:47:13;;;;;;;7.67;4.80;;;10.90;99.90;;;;;;4981046;28;20729;-73
2021/11/10 11:49:40;;;;;;;7.47;3.90;;;11.00;99.90;;;;;;4981534;28;20473;-73
2021/11/10 11:52:09;;;;;;;9.63;4.03;;;11.20;99.90;;;;;;4980573;28;20434;-73
2021/11/10 11:54:38;;;;;;;4.50;4.10;;;11.40;99.90;;;;;;4980377;28;20906;-73
2021/11/10 11:57:05;;;;;;;7.70;4.00;;;11.60;99.90;;;;;;4980534;28;20907;-73
2021/11/10 11:59:31;;;;;;;4.23;3.87;;;11.90;99.90;;;;;;4983201;28;20923;-73
2021/11/10 12:02:01;;;;;;;6.97;4.43;;;12.10;99.90;;;;;;4980393;28;20450;-73
2021/11/10 12:04:36;;;;;;;6.67;4.00;;;12.20;99.90;;;;;;4981163;28;20488;-73
2021/11/10 12:07:03;;;;;;;5.77;4.97;;;12.30;99.90;;;;;;4982881;28;20923;-72
2021/11/10 12:09:32;;;;;;;5.97;4.40;;;12.10;99.90;;;;;;4979204;28;20773;-72
2021/11/10 12:11:59;;;;;;;6.63;4.50;;;11.90;99.90;;;;;;4984217;28;20797;-72
2021/11/10 12:14:28;;;;;;;4.87;4.30;;;11.80;99.90;;;;;;4978982;28;20780;-67
2021/11/10 12:16:55;;;;;;;4.30;3.80;;;11.60;99.90;;;;;;4980689;28;20859;-67
2021/11/10 12:19:59;;;;;;;6.03;4.07;;;11.60;99.90;;;;;;4981117;28;20458;-67
2021/11/10 12:22:25;;;;;;;5.73;4.33;;;11.50;99.90;;;;;;4983265;28;20414;-67
2021/11/10 12:24:59;;;;;;;4.20;3.80;;;11.40;99.90;;;;;;4981513;28;20434;-67
2021/11/10 12:27:41;;;;;;;9.03;4.67;;;11.30;99.90;;;;;;4980973;28;20423;-67
2021/11/10 12:30:07;;;;;;;6.33;4.73;;;11.30;99.90;;;;;;4981667;28;20509;-67
2021/11/10 12:32:38;;;;;;;5.40;4.10;;;11.20;99.90;;;;;;4982420;28;20905;-67
2021/11/10 12:35:07;;;;;;;8.27;4.60;;;11.10;99.90;;;;;;4979555;28;20443;-67
2021/11/10 12:37:41;;;;;;;4.53;4.13;;;11.20;99.90;;;;;;4982952;28;20446;-67
2021/11/10 12:40:20;;;;;;;7.40;5.10;;;11.00;99.90;;;;;;4985220;28;20441;-67
2021/11/10 12:43:01;;;;;;;5.60;4.80;;;11.00;99.90;;;;;;4983593;28;20438;-67
2021/11/10 12:45:53;;;;;;;5.67;4.70;;;10.90;99.90;;;;;;4985112;28;20473;-67
2021/11/10 12:48:41;;;;;;;4.57;4.17;;;10.90;99.90;;;;;;4984588;28;20476;-72
2021/11/10 12:51:15;;;;;;;5.13;4.00;;;10.90;99.90;;;;;;5000585;28;21806;-72
2021/11/10 12:53:51;;;;;;;3.60;3.40;;;10.90;99.90;;;;;;4983246;28;20437;-72
2021/11/10 12:56:37;;;;;;;6.57;3.73;;;10.90;99.90;;;;;;4998684;28;20469;-72
2021/11/10 12:59:02;;;;;;;7.70;4.20;;;10.90;99.90;;;;;;4983632;28;20537;-72